CheckWX is a tool to help pilots better visualize weather data.  It is not intended as a substitute for an official pre-flight weather briefing.

04:01:15 UTC

LDZA TAF
Zagreb Airport
Zagreb, Croatia
TAF LDZA 192325Z 2000/2100 03005KT CAVOK TX09/2013Z TN04/2002Z PROB40 2000/2007 3000 MIFG BR PROB30 TEMPO 2000/2006 0500 FG PROB40 TEMPO 2006/2015 05008KT TEMPO 2007/2100 3000 RA BR BKN005 OVC015 PROB30 TEMPO 2016/2100 1200 RA BCFG BKN002

Nov-20@
00:00 UTC

Nov-20 @ 00:00 UTC

Nov-21@
00:00 UTC

Nov-21 @ 00:00 UTC

TAF LDZA 192325Z 2000/2100 03005KT CAVOK TX09/2013Z TN04/2002Z
Wind
  • 030° at 5 KTS
Cloud Levels
  • No significant clouds

Nov-20@
00:00 UTC

Nov-20 @ 00:00 UTC

Nov-20@
06:00 UTC

Nov-20 @ 06:00 UTC

PROB30 TEMPO 2000/2006 0500 FG

Temporary - 30% Likelihood

Temporary - 30% Likelihood during this time.

Conditions
Fog

Nov-20@
00:00 UTC

Nov-20 @ 00:00 UTC

Nov-20@
07:00 UTC

Nov-20 @ 07:00 UTC

PROB40 2000/2007 3000 MIFG BR

Probable - 40% Likelihood

Probable - 40% Likelihood during this time.

Conditions
Shallow Fog, Mist

Nov-20@
06:00 UTC

Nov-20 @ 06:00 UTC

Nov-20@
15:00 UTC

Nov-20 @ 15:00 UTC

PROB40 TEMPO 2006/2015 05008KT

Temporary - 40% Likelihood

Temporary - 40% Likelihood during this time.

Wind
  • 050° at 8 KTS

Nov-20@
07:00 UTC

Nov-20 @ 07:00 UTC

Nov-21@
00:00 UTC

Nov-21 @ 00:00 UTC

TEMPO 2007/2100 3000 RA BR BKN005 OVC015

Temporary

Temporary Changes expected for less than half the time period

Conditions
Rain, Mist
Cloud Levels
  • Broken at 500' AGL
  • Overcast at 1,500' AGL

Nov-20@
16:00 UTC

Nov-20 @ 16:00 UTC

Nov-21@
00:00 UTC

Nov-21 @ 00:00 UTC

PROB30 TEMPO 2016/2100 1200 RA BCFG BKN002

Temporary - 30% Likelihood

Temporary - 30% Likelihood during this time.

Conditions
Rain, Patches of Fog
Cloud Levels
  • Broken at 200' AGL